Time;durP1;ratioP1;P1;durP2;ratioP2;P2;SDS_P1;SDS_P2;PMS_P1;PMS_P2;Temp;Humidity;BMP_temperature;BMP_pressure;BME280_temperature;BME280_humidity;BME280_pressure;Samples;Min_cycle;Max_cycle;Signal;HPM_P1;HPM_P2
2021/05/30 00:00:36;;;;;;;3.22;2.22;;;12.60;70.50;;;;;;5088139;28;20143;-69
2021/05/30 00:03:03;;;;;;;5.25;3.03;;;12.60;70.60;;;;;;5106295;28;20043;-72
2021/05/30 00:05:31;;;;;;;3.92;2.35;;;12.60;70.60;;;;;;5089167;28;20039;-69
2021/05/30 00:07:58;;;;;;;4.90;2.63;;;12.50;70.70;;;;;;5087898;28;20134;-70
2021/05/30 00:10:26;;;;;;;7.05;3.25;;;12.40;70.80;;;;;;5090722;28;20066;-70
2021/05/30 00:12:53;;;;;;;5.07;3.22;;;12.40;71.10;;;;;;5057232;28;20176;-70
2021/05/30 00:15:20;;;;;;;3.80;2.30;;;12.30;71.10;;;;;;5093484;28;20039;-70
2021/05/30 00:17:47;;;;;;;4.95;3.10;;;12.30;71.20;;;;;;5100034;28;20403;-70
2021/05/30 00:20:15;;;;;;;4.72;3.05;;;12.20;72.00;;;;;;5101385;28;20391;-69
2021/05/30 00:22:42;;;;;;;5.80;3.92;;;12.20;71.40;;;;;;5093524;28;20039;-70
2021/05/30 00:25:10;;;;;;;6.40;3.10;;;12.20;71.50;;;;;;5097559;28;20110;-69
2021/05/30 00:27:37;;;;;;;7.38;3.50;;;12.10;71.50;;;;;;5096190;28;20557;-70
2021/05/30 00:30:06;;;;;;;5.00;3.30;;;12.10;71.60;;;;;;5105667;28;20051;-69
2021/05/30 00:32:33;;;;;;;5.47;3.60;;;12.00;71.80;;;;;;5113196;28;20066;-70
2021/05/30 00:35:00;;;;;;;5.90;2.80;;;12.00;71.80;;;;;;5093788;28;20047;-69
2021/05/30 00:37:27;;;;;;;5.07;2.90;;;11.90;71.90;;;;;;5094941;28;20044;-70
2021/05/30 00:39:54;;;;;;;6.95;3.55;;;11.90;72.50;;;;;;5112867;28;20718;-70
2021/05/30 00:42:21;;;;;;;5.80;3.92;;;11.90;72.00;;;;;;5111292;28;20035;-69
2021/05/30 00:44:48;;;;;;;5.03;3.30;;;11.80;72.10;;;;;;5088563;28;20063;-69
2021/05/30 00:47:15;;;;;;;5.00;2.95;;;11.80;72.20;;;;;;5107113;28;21862;-69
2021/05/30 00:49:43;;;;;;;7.32;2.95;;;11.80;72.20;;;;;;5089672;28;20502;-69
2021/05/30 00:52:10;;;;;;;6.47;3.38;;;11.80;72.20;;;;;;5105768;28;20130;-70
2021/05/30 00:54:38;;;;;;;5.75;2.88;;;11.70;72.30;;;;;;5071411;28;20485;-70
2021/05/30 00:57:07;;;;;;;8.30;2.70;;;11.60;72.40;;;;;;5104775;27;20046;-70
2021/05/30 00:59:35;;;;;;;6.03;3.70;;;11.60;72.50;;;;;;5109435;27;20048;-69
2021/05/30 01:02:03;;;;;;;5.43;3.90;;;11.60;72.60;;;;;;5103545;28;20038;-69
2021/05/30 01:04:31;;;;;;;4.43;2.65;;;11.50;72.70;;;;;;5110206;28;20086;-69
2021/05/30 01:06:58;;;;;;;4.50;2.83;;;11.50;72.80;;;;;;5108268;28;20490;-69
2021/05/30 01:09:27;;;;;;;5.03;3.47;;;11.40;72.80;;;;;;5113889;28;20131;-69
2021/05/30 01:11:55;;;;;;;6.22;3.13;;;11.40;72.90;;;;;;5068677;28;20040;-69
2021/05/30 01:14:23;;;;;;;4.93;2.85;;;11.40;73.00;;;;;;5107628;28;20119;-69
2021/05/30 01:16:50;;;;;;;4.82;2.80;;;11.30;73.00;;;;;;5089200;28;20032;-69
2021/05/30 01:19:19;;;;;;;4.63;2.97;;;11.30;73.10;;;;;;5109769;28;20039;-69
2021/05/30 01:21:47;;;;;;;6.38;3.17;;;11.30;73.10;;;;;;5114031;28;20031;-69
2021/05/30 01:24:15;;;;;;;4.60;2.90;;;11.30;73.30;;;;;;5107227;28;20039;-70
2021/05/30 01:26:43;;;;;;;5.00;3.08;;;11.20;73.30;;;;;;5084489;28;20517;-69
2021/05/30 01:29:10;;;;;;;5.03;3.05;;;11.20;73.30;;;;;;5111300;28;20487;-69
2021/05/30 01:31:37;;;;;;;5.00;3.00;;;11.20;73.30;;;;;;5108943;28;20047;-70
2021/05/30 01:34:04;;;;;;;5.10;3.50;;;11.20;73.30;;;;;;5075620;28;20050;-69
2021/05/30 01:36:32;;;;;;;5.90;3.38;;;11.20;73.40;;;;;;5110120;27;20036;-69
2021/05/30 01:38:59;;;;;;;6.88;3.83;;;11.10;73.50;;;;;;5093780;28;20391;-69
2021/05/30 01:41:26;;;;;;;7.70;3.30;;;11.00;73.50;;;;;;5090698;27;20046;-70
2021/05/30 01:43:53;;;;;;;4.63;2.83;;;11.00;73.70;;;;;;5101599;28;20067;-69
2021/05/30 01:46:20;;;;;;;6.22;3.40;;;11.00;73.70;;;;;;5086605;28;20073;-70
2021/05/30 01:48:48;;;;;;;7.40;4.28;;;10.90;73.80;;;;;;5061512;28;20040;-69
2021/05/30 01:51:14;;;;;;;6.35;4.05;;;10.90;73.90;;;;;;5073505;28;20093;-71
2021/05/30 01:59:02;;;;;;;6.97;4.25;;;10.70;73.90;;;;;;5099915;28;19978;-71
2021/05/30 02:01:33;;;;;;;6.13;3.60;;;10.70;74.20;;;;;;5089323;28;20044;-71
2021/05/30 02:04:05;;;;;;;7.85;3.90;;;10.70;74.20;;;;;;5098844;28;20391;-71
2021/05/30 02:06:33;;;;;;;7.63;3.78;;;10.70;74.30;;;;;;5080830;28;20364;-71
2021/05/30 02:09:02;;;;;;;5.63;3.08;;;10.60;74.30;;;;;;5094952;28;20502;-72
2021/05/30 02:11:29;;;;;;;6.43;3.67;;;10.60;74.30;;;;;;5111206;28;20098;-71
2021/05/30 02:14:01;;;;;;;5.13;2.63;;;10.60;74.30;;;;;;5076780;28;20126;-71
2021/05/30 02:16:30;;;;;;;5.03;3.20;;;10.70;74.30;;;;;;5089778;28;20039;-72
2021/05/30 02:18:57;;;;;;;6.50;3.83;;;10.70;74.40;;;;;;5110738;28;20042;-72
2021/05/30 02:21:25;;;;;;;6.90;3.70;;;10.70;74.40;;;;;;5092741;28;20418;-72
2021/05/30 02:23:52;;;;;;;5.45;2.97;;;10.70;74.40;;;;;;5091885;28;20046;-71
2021/05/30 02:26:19;;;;;;;6.50;3.40;;;10.60;74.40;;;;;;5111297;28;20092;-71
2021/05/30 02:28:46;;;;;;;5.72;3.10;;;10.60;74.50;;;;;;5112447;28;20066;-72
2021/05/30 02:31:13;;;;;;;5.95;3.53;;;10.60;74.60;;;;;;5093879;28;20035;-72
2021/05/30 02:33:40;;;;;;;4.68;3.08;;;10.60;74.60;;;;;;5110849;28;20885;-71
2021/05/30 02:36:07;;;;;;;6.05;3.80;;;10.50;74.70;;;;;;5089488;28;20032;-72
2021/05/30 02:38:34;;;;;;;7.60;4.22;;;10.50;74.80;;;;;;5074062;28;20105;-73
2021/05/30 02:41:01;;;;;;;8.93;4.68;;;10.50;74.90;;;;;;5091525;28;20039;-71
2021/05/30 02:43:28;;;;;;;5.88;4.25;;;10.50;75.00;;;;;;5110822;28;20028;-71
2021/05/30 02:45:55;;;;;;;6.88;4.07;;;10.40;74.90;;;;;;5109021;28;20138;-71
2021/05/30 02:48:22;;;;;;;7.53;3.58;;;10.40;74.90;;;;;;5109131;28;20486;-71
2021/05/30 02:50:58;;;;;;;6.40;3.75;;;10.40;75.00;;;;;;5103132;28;20039;-72
2021/05/30 02:53:27;;;;;;;5.20;3.05;;;10.40;75.00;;;;;;5093741;28;20055;-72
2021/05/30 02:55:54;;;;;;;6.95;3.22;;;10.40;75.10;;;;;;5112074;28;20035;-71
2021/05/30 02:58:22;;;;;;;5.78;3.50;;;10.40;75.10;;;;;;5092672;28;20082;-71
2021/05/30 03:00:49;;;;;;;8.00;3.60;;;10.40;75.10;;;;;;5109214;28;20066;-72
2021/05/30 03:03:16;;;;;;;8.50;4.45;;;10.30;75.10;;;;;;5090859;28;20028;-72
2021/05/30 03:05:43;;;;;;;6.93;4.40;;;10.30;75.20;;;;;;5091058;28;20386;-71
2021/05/30 03:08:11;;;;;;;7.97;4.60;;;10.30;75.20;;;;;;5092853;28;20437;-71
2021/05/30 03:10:38;;;;;;;8.10;4.45;;;10.30;75.40;;;;;;5111310;28;20040;-72
2021/05/30 03:13:08;;;;;;;6.82;3.78;;;10.30;75.40;;;;;;5076016;28;20055;-72
2021/05/30 03:15:35;;;;;;;7.00;4.03;;;10.20;75.40;;;;;;5110779;28;20036;-71
2021/05/30 03:18:02;;;;;;;8.77;4.90;;;10.20;75.60;;;;;;5089996;28;20057;-71
2021/05/30 03:20:29;;;;;;;6.88;3.53;;;10.20;75.70;;;;;;5072075;28;20039;-72
2021/05/30 03:22:56;;;;;;;7.07;4.10;;;10.20;75.70;;;;;;5109373;28;20081;-71
2021/05/30 03:25:23;;;;;;;7.57;4.05;;;10.20;75.80;;;;;;5111008;28;20059;-72
2021/05/30 03:27:50;;;;;;;6.38;3.70;;;10.20;75.80;;;;;;5091185;28;20043;-71
2021/05/30 03:30:17;;;;;;;6.10;3.50;;;10.20;75.80;;;;;;5111242;28;20067;-71
2021/05/30 03:32:44;;;;;;;6.15;3.90;;;10.20;75.90;;;;;;5109682;28;20039;-71
2021/05/30 03:35:11;;;;;;;9.48;4.65;;;10.20;75.90;;;;;;5110216;28;20036;-72
2021/05/30 03:37:39;;;;;;;8.80;4.45;;;10.20;75.90;;;;;;5111173;28;20039;-71
2021/05/30 03:40:23;;;;;;;7.68;3.95;;;10.20;76.10;;;;;;5110029;28;20126;-71
2021/05/30 03:42:52;;;;;;;7.65;4.50;;;10.10;76.10;;;;;;5094077;28;20039;-71
2021/05/30 03:45:20;;;;;;;9.48;4.55;;;10.10;76.20;;;;;;5092382;28;20043;-72
2021/05/30 03:47:48;;;;;;;7.50;4.68;;;10.10;76.20;;;;;;5092086;28;20039;-72
2021/05/30 03:50:16;;;;;;;7.47;3.95;;;10.10;76.90;;;;;;5111372;28;20040;-71
2021/05/30 03:52:43;;;;;;;5.53;3.90;;;10.10;76.30;;;;;;5110737;28;20067;-71
2021/05/30 03:55:12;;;;;;;6.13;3.53;;;10.10;76.30;;;;;;5110185;28;20560;-71
2021/05/30 03:57:39;;;;;;;6.05;2.80;;;10.10;76.30;;;;;;5108946;28;20036;-72
2021/05/30 04:00:11;;;;;;;9.10;3.25;;;10.10;76.30;;;;;;5092656;28;20110;-71
2021/05/30 04:02:38;;;;;;;6.88;3.80;;;10.10;76.30;;;;;;5108541;28;20549;-71
2021/05/30 04:05:06;;;;;;;3.80;2.20;;;10.10;76.30;;;;;;5110806;28;20386;-71
2021/05/30 04:07:33;;;;;;;7.18;3.40;;;10.10;76.30;;;;;;5109201;28;20047;-71
2021/05/30 04:10:03;;;;;;;6.43;3.60;;;10.10;76.40;;;;;;5092149;28;20071;-72
2021/05/30 04:12:30;;;;;;;7.03;3.78;;;10.10;76.50;;;;;;5090701;28;20054;-71
2021/05/30 04:14:57;;;;;;;7.15;4.07;;;10.10;76.50;;;;;;5072507;28;20139;-72
2021/05/30 04:17:24;;;;;;;7.93;3.70;;;10.10;76.60;;;;;;5091440;28;20036;-72
2021/05/30 04:19:52;;;;;;;6.25;3.10;;;10.10;76.60;;;;;;5090656;28;20445;-72
2021/05/30 04:22:19;;;;;;;7.70;3.78;;;10.10;76.60;;;;;;5109701;28;20055;-71
2021/05/30 04:24:46;;;;;;;5.88;3.50;;;10.10;76.50;;;;;;5075092;28;20048;-71
2021/05/30 04:27:13;;;;;;;6.10;3.10;;;10.20;76.50;;;;;;5097205;28;20047;-71
2021/05/30 04:29:42;;;;;;;5.18;3.00;;;10.20;76.60;;;;;;5109270;28;20089;-71
2021/05/30 04:32:09;;;;;;;6.53;3.95;;;10.10;76.60;;;;;;5090615;28;20052;-71
2021/05/30 04:34:36;;;;;;;5.85;3.28;;;10.20;76.60;;;;;;5084928;28;20495;-72
2021/05/30 04:37:03;;;;;;;5.40;3.45;;;10.20;76.60;;;;;;5091461;28;20040;-71
2021/05/30 04:39:33;;;;;;;5.25;3.20;;;10.20;76.60;;;;;;5109085;28;20031;-72
2021/05/30 04:42:03;;;;;;;6.43;3.20;;;10.30;76.60;;;;;;5109804;28;20059;-71
2021/05/30 04:44:30;;;;;;;7.25;3.30;;;10.30;76.50;;;;;;5093366;28;20764;-70
2021/05/30 04:46:57;;;;;;;5.63;2.90;;;10.40;76.40;;;;;;5104605;28;20856;-72
2021/05/30 04:49:24;;;;;;;5.82;3.55;;;10.40;76.20;;;;;;5076259;28;20066;-71
2021/05/30 04:51:51;;;;;;;5.75;3.67;;;10.50;76.20;;;;;;5072172;28;20414;-71
2021/05/30 04:54:19;;;;;;;5.25;3.00;;;10.50;76.20;;;;;;5109465;28;20036;-71
2021/05/30 04:56:46;;;;;;;7.00;3.45;;;10.60;76.30;;;;;;5108408;28;20077;-72
2021/05/30 04:59:13;;;;;;;6.68;3.92;;;10.60;76.30;;;;;;5088629;28;20058;-71
2021/05/30 05:01:40;;;;;;;5.75;3.40;;;10.60;76.20;;;;;;5109080;28;20077;-72
2021/05/30 05:04:07;;;;;;;6.28;3.30;;;10.60;76.20;;;;;;5111464;28;20028;-71
2021/05/30 05:06:34;;;;;;;5.82;3.20;;;10.70;76.10;;;;;;5104782;28;20089;-71
2021/05/30 05:09:01;;;;;;;5.82;3.38;;;10.80;76.10;;;;;;5093081;28;20085;-71
2021/05/30 05:11:28;;;;;;;6.70;2.90;;;10.80;76.00;;;;;;5078945;28;20067;-71
2021/05/30 05:13:55;;;;;;;6.53;3.45;;;10.90;75.90;;;;;;5107822;28;20463;-71
2021/05/30 05:16:24;;;;;;;6.72;3.80;;;11.00;75.80;;;;;;5107417;28;20455;-71
2021/05/30 05:18:52;;;;;;;6.30;3.60;;;11.00;75.80;;;;;;5105112;28;20483;-71
2021/05/30 05:21:19;;;;;;;5.35;3.40;;;11.10;75.70;;;;;;5090793;28;20456;-72
2021/05/30 05:23:46;;;;;;;5.43;2.83;;;11.20;75.60;;;;;;5110072;28;20555;-69
2021/05/30 05:26:13;;;;;;;5.25;2.63;;;11.30;75.50;;;;;;5102279;28;20051;-69
2021/05/30 05:28:40;;;;;;;5.47;3.47;;;11.40;75.40;;;;;;5074388;27;20047;-69
2021/05/30 05:31:07;;;;;;;5.35;3.03;;;11.50;75.40;;;;;;5091320;28;20452;-72
2021/05/30 05:33:34;;;;;;;4.88;3.22;;;11.60;75.20;;;;;;5073467;28;20075;-72
2021/05/30 05:36:01;;;;;;;5.53;3.28;;;11.70;75.10;;;;;;5088148;28;20138;-73
2021/05/30 05:38:28;;;;;;;7.90;4.68;;;11.80;74.90;;;;;;5112627;28;20035;-72
2021/05/30 05:40:56;;;;;;;7.18;3.70;;;11.80;74.80;;;;;;5111547;28;20084;-72
2021/05/30 05:43:23;;;;;;;6.13;3.13;;;11.90;74.70;;;;;;5112272;28;20036;-73
2021/05/30 05:45:50;;;;;;;6.55;3.80;;;12.00;74.60;;;;;;5108345;28;20051;-73
2021/05/30 05:48:17;;;;;;;6.40;3.85;;;12.10;74.50;;;;;;5087917;28;20044;-72
2021/05/30 05:50:45;;;;;;;5.35;3.15;;;12.20;74.30;;;;;;5065041;28;20044;-71
2021/05/30 05:53:14;;;;;;;5.50;3.40;;;12.30;74.10;;;;;;5112428;28;20075;-71
2021/05/30 05:55:41;;;;;;;7.18;4.10;;;12.40;74.00;;;;;;5110001;28;20119;-72
2021/05/30 05:58:09;;;;;;;7.63;4.60;;;12.40;73.90;;;;;;5093117;28;20040;-72
2021/05/30 06:00:36;;;;;;;6.80;3.67;;;12.50;73.90;;;;;;5088867;28;20071;-71
2021/05/30 06:03:04;;;;;;;6.20;3.42;;;12.60;73.80;;;;;;5091186;28;20032;-72
2021/05/30 06:05:31;;;;;;;6.60;3.83;;;12.60;73.70;;;;;;5108055;28;20567;-72
2021/05/30 06:07:58;;;;;;;6.85;3.75;;;12.70;73.60;;;;;;5090707;28;20515;-72
2021/05/30 06:10:27;;;;;;;6.25;3.58;;;12.80;73.40;;;;;;5087503;28;20055;-72
2021/05/30 06:12:57;;;;;;;6.65;4.22;;;12.90;73.30;;;;;;5110096;27;20039;-72
2021/05/30 06:15:24;;;;;;;6.03;3.22;;;13.00;73.20;;;;;;5106583;28;20981;-72
2021/05/30 06:17:57;;;;;;;7.05;4.07;;;13.10;73.10;;;;;;5106199;28;20563;-71
2021/05/30 06:20:26;;;;;;;5.88;3.28;;;13.20;73.00;;;;;;5061326;28;20046;-71
2021/05/30 06:22:53;;;;;;;7.43;3.95;;;13.20;72.70;;;;;;5086400;28;20126;-72
2021/05/30 06:25:21;;;;;;;9.30;4.30;;;13.30;72.70;;;;;;5110485;28;20096;-71
2021/05/30 06:27:49;;;;;;;6.18;3.65;;;13.30;72.60;;;;;;5090233;28;20082;-71
2021/05/30 06:30:18;;;;;;;5.97;4.03;;;13.30;72.50;;;;;;5076558;28;20047;-72
2021/05/30 06:32:45;;;;;;;7.20;3.55;;;13.40;72.40;;;;;;5107467;28;20494;-71
2021/05/30 06:35:12;;;;;;;7.30;4.15;;;13.40;72.40;;;;;;5089165;28;20545;-72
2021/05/30 06:37:39;;;;;;;7.38;4.75;;;13.50;72.30;;;;;;5057610;28;20043;-72
2021/05/30 06:40:07;;;;;;;6.20;3.80;;;13.60;72.10;;;;;;5088628;28;20031;-71
2021/05/30 06:42:34;;;;;;;5.85;3.60;;;13.70;72.10;;;;;;5083798;28;20047;-72
2021/05/30 06:45:01;;;;;;;6.72;4.00;;;13.80;71.90;;;;;;5085688;28;20463;-72
2021/05/30 06:47:29;;;;;;;6.55;3.60;;;13.90;71.80;;;;;;5103143;28;20032;-72
2021/05/30 06:49:56;;;;;;;7.25;4.07;;;13.90;71.60;;;;;;5087589;28;20059;-72
2021/05/30 06:52:23;;;;;;;7.00;4.25;;;14.10;71.50;;;;;;5104437;28;20490;-72
2021/05/30 06:54:50;;;;;;;7.75;4.07;;;14.20;71.40;;;;;;5085858;28;20040;-72
2021/05/30 06:57:17;;;;;;;6.80;3.95;;;14.30;71.20;;;;;;5101861;28;20903;-72
2021/05/30 06:59:47;;;;;;;7.68;4.47;;;14.40;71.10;;;;;;5068208;28;20073;-72
2021/05/30 07:02:16;;;;;;;8.05;4.30;;;14.40;70.90;;;;;;5104819;28;20032;-72
2021/05/30 07:04:43;;;;;;;7.15;4.20;;;14.50;70.80;;;;;;5088679;28;20036;-72
2021/05/30 07:07:10;;;;;;;7.53;3.95;;;14.60;70.70;;;;;;5084485;28;20032;-73
2021/05/30 07:09:37;;;;;;;6.38;3.83;;;14.60;70.50;;;;;;5102738;28;20092;-72
2021/05/30 07:12:05;;;;;;;6.60;4.20;;;14.60;70.40;;;;;;5085126;28;20038;-72
2021/05/30 07:14:32;;;;;;;6.82;4.00;;;14.70;70.40;;;;;;5090282;28;20039;-72
2021/05/30 07:16:59;;;;;;;5.72;3.63;;;14.80;70.40;;;;;;5091550;28;20039;-72
2021/05/30 07:19:27;;;;;;;7.20;4.35;;;14.90;70.20;;;;;;5086311;28;20048;-72
2021/05/30 07:21:54;;;;;;;6.07;3.78;;;15.00;70.00;;;;;;5074710;28;20562;-72
2021/05/30 07:24:21;;;;;;;7.72;4.13;;;15.10;69.80;;;;;;5063253;28;20174;-72
2021/05/30 07:26:48;;;;;;;5.53;3.50;;;15.20;69.70;;;;;;5101069;28;20092;-73
2021/05/30 07:29:16;;;;;;;6.97;3.78;;;15.30;69.50;;;;;;5104086;28;20105;-73
2021/05/30 07:31:43;;;;;;;6.13;3.53;;;15.30;69.30;;;;;;5084706;28;20044;-72
2021/05/30 07:34:11;;;;;;;7.07;4.25;;;15.40;69.20;;;;;;5087426;28;20087;-72
2021/05/30 07:36:38;;;;;;;6.90;3.53;;;15.50;69.20;;;;;;5105785;28;20040;-72
2021/05/30 07:39:05;;;;;;;5.80;3.78;;;15.50;69.10;;;;;;5084617;28;20031;-72
2021/05/30 07:41:34;;;;;;;6.38;4.00;;;15.60;68.90;;;;;;5105786;28;20047;-72
2021/05/30 07:44:02;;;;;;;7.47;4.38;;;15.70;68.80;;;;;;5107362;28;20055;-72
2021/05/30 07:46:29;;;;;;;6.57;4.40;;;15.70;68.60;;;;;;5104118;28;20491;-72
2021/05/30 07:48:56;;;;;;;8.10;5.53;;;15.80;68.50;;;;;;5088787;28;20040;-72
2021/05/30 07:51:23;;;;;;;8.52;4.72;;;15.80;69.00;;;;;;5102471;28;20043;-74
2021/05/30 07:53:50;;;;;;;8.95;4.97;;;15.80;68.40;;;;;;5093052;28;20039;-73
2021/05/30 07:56:17;;;;;;;8.13;4.43;;;16.00;68.30;;;;;;5094679;28;20036;-73
2021/05/30 07:58:44;;;;;;;8.30;4.03;;;16.10;68.10;;;;;;5086240;28;20544;-73
2021/05/30 08:01:11;;;;;;;6.72;3.92;;;16.20;67.90;;;;;;5077366;28;20060;-73
2021/05/30 08:03:38;;;;;;;7.40;4.50;;;16.20;67.80;;;;;;5099400;28;20097;-73
2021/05/30 08:06:05;;;;;;;6.78;4.32;;;16.40;67.60;;;;;;5099266;28;20046;-73
2021/05/30 08:08:32;;;;;;;6.60;4.05;;;16.40;67.40;;;;;;5104289;28;20110;-73
2021/05/30 08:10:59;;;;;;;8.85;5.50;;;16.50;67.90;;;;;;5079079;28;20039;-72
2021/05/30 08:13:27;;;;;;;8.88;4.20;;;16.60;67.40;;;;;;5086361;28;20462;-72
2021/05/30 08:15:54;;;;;;;8.52;4.45;;;16.60;67.10;;;;;;5110413;28;20044;-72
2021/05/30 08:18:21;;;;;;;8.05;5.40;;;16.70;67.00;;;;;;5088303;28;20039;-72
2021/05/30 08:20:48;;;;;;;7.10;4.57;;;16.80;66.80;;;;;;5088982;28;20097;-72
2021/05/30 08:23:14;;;;;;;6.85;4.30;;;16.90;66.70;;;;;;5075392;28;20035;-72
2021/05/30 08:25:42;;;;;;;6.65;4.15;;;17.00;66.60;;;;;;5111423;28;20506;-73
2021/05/30 08:28:10;;;;;;;6.22;3.90;;;17.00;66.40;;;;;;5111546;28;20407;-72
2021/05/30 08:30:38;;;;;;;7.47;4.70;;;17.10;66.40;;;;;;5108824;28;20444;-72
2021/05/30 08:33:06;;;;;;;7.38;4.47;;;17.20;66.20;;;;;;5084744;28;20058;-72
2021/05/30 08:35:33;;;;;;;8.10;4.25;;;17.30;66.00;;;;;;5096912;28;20453;-72
2021/05/30 08:38:01;;;;;;;10.07;5.05;;;17.40;65.80;;;;;;5085448;28;20074;-72
2021/05/30 08:40:28;;;;;;;7.60;4.90;;;17.50;65.60;;;;;;5092207;28;20171;-72
2021/05/30 08:42:55;;;;;;;8.35;5.28;;;17.60;65.50;;;;;;5088783;28;20044;-72
2021/05/30 08:45:23;;;;;;;8.23;5.55;;;17.60;65.40;;;;;;5105315;28;20410;-72
2021/05/30 08:47:51;;;;;;;8.48;6.15;;;17.70;65.30;;;;;;5112354;28;20048;-73
2021/05/30 08:50:18;;;;;;;8.93;5.53;;;17.80;65.10;;;;;;5108784;28;20120;-72
2021/05/30 08:52:45;;;;;;;6.35;4.80;;;17.90;65.10;;;;;;5091480;28;20524;-73
2021/05/30 08:55:13;;;;;;;7.32;4.22;;;18.00;64.90;;;;;;5104415;28;20043;-72
2021/05/30 08:57:40;;;;;;;7.78;4.90;;;18.10;64.70;;;;;;5093402;28;20065;-72
2021/05/30 09:00:10;;;;;;;7.28;3.90;;;18.30;65.20;;;;;;5096945;28;20044;-72
2021/05/30 09:02:38;;;;;;;7.13;3.92;;;18.40;64.30;;;;;;5080273;28;20115;-72
2021/05/30 09:05:08;;;;;;;6.28;4.65;;;18.50;64.00;;;;;;5114428;28;20398;-72
2021/05/30 09:07:39;;;;;;;8.55;4.80;;;18.50;63.70;;;;;;5079268;28;20047;-72
2021/05/30 09:10:09;;;;;;;5.00;3.50;;;18.60;63.70;;;;;;5103394;28;20044;-73
2021/05/30 09:13:23;;;;;;;6.47;3.92;;;18.60;63.60;;;;;;5102544;28;20052;-72
2021/05/30 09:18:22;;;;;;;6.50;3.22;;;18.80;62.90;;;;;;5111780;28;20039;-72
2021/05/30 09:20:58;;;;;;;5.65;2.83;;;18.90;62.60;;;;;;5112339;28;20043;-72
2021/05/30 09:23:36;;;;;;;7.10;2.80;;;19.10;62.50;;;;;;5110392;28;20063;-72
2021/05/30 09:26:17;;;;;;;6.97;2.90;;;19.30;62.20;;;;;;5107098;28;20044;-72
2021/05/30 09:29:10;;;;;;;5.90;3.97;;;19.40;61.70;;;;;;5111218;28;20462;-70
2021/05/30 09:31:53;;;;;;;5.38;3.35;;;19.50;61.10;;;;;;5109315;28;20042;-71
2021/05/30 09:34:42;;;;;;;3.92;2.58;;;19.50;60.90;;;;;;5112692;28;20443;-71
2021/05/30 09:37:09;;;;;;;6.90;3.08;;;19.60;60.80;;;;;;5110718;28;20059;-71
2021/05/30 09:39:38;;;;;;;7.68;3.72;;;19.70;60.80;;;;;;5086446;28;20050;-71
2021/05/30 09:42:26;;;;;;;4.90;3.20;;;19.70;60.10;;;;;;5084224;28;20032;-71
2021/05/30 09:44:58;;;;;;;4.60;2.88;;;19.70;60.20;;;;;;5102091;28;20081;-71
2021/05/30 09:47:45;;;;;;;5.25;3.15;;;19.70;60.00;;;;;;5082168;28;20066;-71
2021/05/30 09:50:18;;;;;;;5.82;3.42;;;19.80;59.60;;;;;;5106899;27;20081;-71
2021/05/30 09:52:52;;;;;;;5.97;3.33;;;19.70;59.80;;;;;;5080914;28;20044;-71
2021/05/30 09:55:22;;;;;;;5.97;3.25;;;19.80;59.60;;;;;;5085915;28;20075;-72
2021/05/30 09:58:19;;;;;;;7.30;4.03;;;19.80;59.50;;;;;;5093482;28;20049;-71
2021/05/30 10:00:52;;;;;;;6.25;3.33;;;19.80;59.00;;;;;;5111582;28;20050;-70
2021/05/30 10:03:19;;;;;;;4.57;2.85;;;19.80;59.20;;;;;;5112777;28;20116;-71
2021/05/30 10:05:47;;;;;;;5.30;3.08;;;19.80;59.10;;;;;;5113118;28;20040;-70
2021/05/30 10:08:18;;;;;;;4.47;2.65;;;20.00;59.00;;;;;;5094748;28;20209;-71
2021/05/30 10:10:46;;;;;;;3.90;2.30;;;20.10;58.70;;;;;;5094359;28;20050;-71
2021/05/30 10:13:14;;;;;;;4.57;2.78;;;20.30;58.30;;;;;;5093477;28;20560;-71
2021/05/30 10:15:41;;;;;;;4.50;2.85;;;20.40;58.00;;;;;;5110104;28;20068;-71
2021/05/30 10:18:34;;;;;;;6.72;3.55;;;20.50;57.70;;;;;;5107923;28;20039;-71
2021/05/30 10:21:03;;;;;;;4.32;2.72;;;20.60;57.80;;;;;;5092558;28;20039;-72
2021/05/30 10:23:31;;;;;;;4.88;2.42;;;20.60;57.50;;;;;;5093532;28;20050;-71
2021/05/30 10:26:16;;;;;;;4.72;3.05;;;20.70;57.30;;;;;;5092008;28;20096;-70
2021/05/30 10:29:02;;;;;;;4.90;2.90;;;20.80;56.90;;;;;;5110057;28;20086;-71
2021/05/30 10:31:35;;;;;;;5.65;3.55;;;20.80;56.50;;;;;;5111554;28;20035;-71
2021/05/30 10:34:14;;;;;;;4.38;2.53;;;20.70;56.50;;;;;;5108443;28;20040;-72
2021/05/30 10:36:42;;;;;;;4.97;2.63;;;20.70;56.50;;;;;;5106073;28;20040;-71
2021/05/30 10:39:28;;;;;;;4.35;1.95;;;20.80;56.20;;;;;;5090513;28;20430;-72
2021/05/30 10:42:28;;;;;;;2.83;1.80;;;20.90;55.80;;;;;;5085510;28;20067;-76
2021/05/30 10:45:06;;;;;;;4.05;2.08;;;21.00;55.60;;;;;;5102855;28;20047;-71
2021/05/30 10:47:52;;;;;;;3.10;1.77;;;21.10;55.40;;;;;;5093298;28;20052;-71
2021/05/30 10:50:21;;;;;;;4.20;2.05;;;21.20;55.10;;;;;;5093034;28;20046;-71
2021/05/30 10:52:56;;;;;;;3.80;2.10;;;21.30;55.10;;;;;;5086789;28;20410;-71
2021/05/30 10:55:31;;;;;;;3.42;1.63;;;21.30;55.10;;;;;;5079352;28;20039;-71
2021/05/30 10:58:15;;;;;;;3.20;1.90;;;21.40;54.70;;;;;;5110963;28;20085;-70
2021/05/30 11:00:43;;;;;;;3.20;1.70;;;21.40;54.20;;;;;;5075856;28;20441;-70
2021/05/30 11:03:13;;;;;;;3.33;1.70;;;21.40;54.10;;;;;;5090592;28;20112;-71
2021/05/30 11:05:40;;;;;;;4.50;2.00;;;21.40;53.50;;;;;;5094161;28;20052;-69
2021/05/30 11:08:07;;;;;;;3.20;1.73;;;21.40;53.00;;;;;;5091275;28;20101;-71
2021/05/30 11:10:34;;;;;;;3.00;1.95;;;21.40;53.00;;;;;;5076824;28;20070;-71
2021/05/30 11:13:03;;;;;;;2.17;1.20;;;21.50;52.80;;;;;;5096311;28;20036;-71
2021/05/30 11:15:31;;;;;;;3.08;1.38;;;21.60;52.80;;;;;;5078582;28;20058;-70
2021/05/30 11:18:00;;;;;;;3.13;1.75;;;21.70;52.70;;;;;;5089995;28;20040;-70
2021/05/30 11:20:43;;;;;;;2.95;1.80;;;21.80;52.30;;;;;;5088112;28;20043;-70
2021/05/30 11:23:19;;;;;;;3.75;1.80;;;22.00;52.30;;;;;;5113494;27;20052;-71
2021/05/30 11:25:50;;;;;;;2.85;1.10;;;22.10;52.10;;;;;;5089692;28;20058;-72
2021/05/30 11:28:22;;;;;;;2.80;1.70;;;22.10;52.10;;;;;;5111063;28;20048;-72
2021/05/30 11:30:51;;;;;;;2.28;1.23;;;22.30;52.00;;;;;;5116890;27;20064;-72
2021/05/30 11:33:21;;;;;;;2.47;1.40;;;22.30;51.70;;;;;;5113614;28;21323;-72
2021/05/30 11:35:50;;;;;;;3.53;1.80;;;22.30;51.20;;;;;;5095791;28;20081;-72
2021/05/30 11:38:18;;;;;;;2.38;1.35;;;22.20;51.10;;;;;;5092574;28;20070;-72
2021/05/30 11:40:45;;;;;;;2.53;1.17;;;22.20;50.80;;;;;;5090587;28;20399;-73
2021/05/30 11:43:18;;;;;;;3.67;1.42;;;22.30;50.70;;;;;;5095038;27;20036;-72
2021/05/30 11:45:47;;;;;;;2.13;1.23;;;22.50;50.30;;;;;;5109509;27;20044;-72
2021/05/30 11:48:17;;;;;;;2.40;1.05;;;22.70;49.70;;;;;;5107516;28;20043;-71
2021/05/30 11:50:55;;;;;;;3.17;1.10;;;22.90;49.40;;;;;;5113673;28;20040;-70
2021/05/30 11:53:27;;;;;;;5.35;1.75;;;23.20;49.30;;;;;;5109420;28;20039;-72
2021/05/30 11:55:56;;;;;;;3.97;1.98;;;23.50;48.30;;;;;;5110757;28;20120;-70
2021/05/30 11:58:24;;;;;;;2.00;1.20;;;23.60;48.00;;;;;;5107368;28;20090;-70
2021/05/30 12:01:09;;;;;;;2.67;1.30;;;23.80;47.60;;;;;;5107281;28;20060;-71
2021/05/30 12:03:48;;;;;;;2.63;1.10;;;24.10;46.20;;;;;;5105045;28;20490;-71
2021/05/30 12:06:15;;;;;;;2.10;1.30;;;24.40;46.60;;;;;;5090949;28;20031;-72
2021/05/30 12:08:54;;;;;;;2.75;1.00;;;24.90;46.20;;;;;;5108078;28;20047;-71
2021/05/30 12:11:28;;;;;;;1.73;0.90;;;25.40;45.70;;;;;;5077835;28;20506;-70
2021/05/30 12:14:03;;;;;;;1.55;0.88;;;25.80;45.50;;;;;;5095668;28;20035;-72
2021/05/30 12:16:30;;;;;;;2.13;0.90;;;26.20;44.70;;;;;;5095733;28;20044;-73
2021/05/30 12:19:00;;;;;;;1.70;0.90;;;26.50;44.20;;;;;;5059949;28;20093;-71
2021/05/30 12:21:46;;;;;;;2.13;0.93;;;26.90;43.90;;;;;;5094745;28;20475;-72
2021/05/30 12:24:16;;;;;;;2.25;0.90;;;27.20;42.80;;;;;;5114825;28;20070;-72
2021/05/30 12:26:45;;;;;;;1.80;0.77;;;27.40;42.90;;;;;;5095415;28;20063;-72
2021/05/30 12:29:14;;;;;;;1.52;0.80;;;27.70;42.70;;;;;;5107319;28;20192;-72
2021/05/30 12:31:41;;;;;;;1.17;0.75;;;27.90;42.30;;;;;;5095848;28;20044;-71
2021/05/30 12:34:09;;;;;;;1.27;0.70;;;28.10;41.90;;;;;;5097052;28;20521;-71
2021/05/30 12:36:41;;;;;;;1.00;0.60;;;28.40;41.60;;;;;;5079474;28;20051;-74
2021/05/30 12:39:11;;;;;;;1.85;0.80;;;28.70;41.10;;;;;;5114354;27;20086;-71
2021/05/30 12:41:51;;;;;;;1.63;0.63;;;28.80;40.60;;;;;;5111534;28;20039;-71
2021/05/30 12:44:30;;;;;;;1.83;0.70;;;29.20;40.50;;;;;;5115027;28;20047;-71
2021/05/30 12:47:06;;;;;;;1.50;0.70;;;29.40;40.20;;;;;;5112652;28;20070;-70
2021/05/30 12:49:34;;;;;;;1.02;0.52;;;29.60;39.60;;;;;;5114905;28;20040;-74
2021/05/30 12:52:16;;;;;;;1.13;0.57;;;29.70;39.30;;;;;;5101829;28;20093;-75
2021/05/30 12:54:59;;;;;;;1.33;0.60;;;29.90;39.00;;;;;;5106032;28;20039;-75
2021/05/30 12:57:46;;;;;;;1.42;0.68;;;30.10;38.70;;;;;;5096819;28;20058;-75
2021/05/30 13:00:31;;;;;;;2.05;0.70;;;30.30;38.60;;;;;;5114019;28;20046;-76
2021/05/30 13:03:10;;;;;;;1.52;0.70;;;30.60;38.20;;;;;;5086035;28;20121;-76
2021/05/30 13:05:42;;;;;;;1.77;0.73;;;30.70;37.40;;;;;;5110279;28;20028;-77
2021/05/30 13:08:24;;;;;;;1.30;0.85;;;30.60;37.10;;;;;;5096423;28;20040;-76